Time;durP1;ratioP1;P1;durP2;ratioP2;P2;SDS_P1;SDS_P2;PMS_P1;PMS_P2;Temp;Humidity;BMP_temperature;BMP_pressure;BME280_temperature;BME280_humidity;BME280_pressure;Samples;Min_cycle;Max_cycle;Signal;HPM_P1;HPM_P2
2021/08/23 00:02:02;;;;;;;4.97;4.47;;;;;;;16.44;100.00;100751.28;5086988;28;20197;-75
2021/08/23 00:05:13;;;;;;;5.30;3.90;;;;;;;16.37;100.00;100750.72;5088484;28;20243;-75
2021/08/23 00:07:53;;;;;;;3.80;3.40;;;;;;;16.28;100.00;100738.00;5086692;28;20658;-75
2021/08/23 00:10:39;;;;;;;4.03;3.33;;;;;;;16.24;100.00;100739.09;5082895;28;20194;-75
2021/08/23 00:13:09;;;;;;;7.87;3.57;;;;;;;16.21;100.00;100737.44;5083204;28;20941;-75
2021/08/23 00:15:53;;;;;;;4.00;3.60;;;;;;;16.21;100.00;100737.44;5089692;28;20194;-75
2021/08/23 00:18:28;;;;;;;4.10;3.70;;;;;;;16.19;100.00;100734.03;5083851;28;20580;-75
2021/08/23 00:21:12;;;;;;;4.30;3.70;;;;;;;16.19;100.00;100738.47;5088634;28;20692;-75
2021/08/23 00:23:50;;;;;;;3.50;3.07;;;;;;;16.16;100.00;100733.34;5090761;28;20621;-75
2021/08/23 00:26:33;;;;;;;4.80;3.27;;;;;;;16.14;100.00;100728.16;5081061;28;20734;-75
2021/08/23 00:29:10;;;;;;;4.23;2.87;;;;;;;16.10;100.00;100731.84;5096033;28;20780;-75
2021/08/23 00:31:50;;;;;;;3.27;2.97;;;;;;;16.09;100.00;100731.00;5087996;28;20212;-75
2021/08/23 00:34:26;;;;;;;5.50;3.13;;;;;;;16.03;100.00;100733.91;5088343;28;20193;-75
2021/08/23 00:37:10;;;;;;;3.53;3.23;;;;;;;16.04;100.00;100740.03;5088957;28;20226;-75
2021/08/23 00:40:05;;;;;;;3.43;3.13;;;;;;;16.00;100.00;100734.06;5087706;28;20365;-75
2021/08/23 00:42:43;;;;;;;3.30;3.00;;;;;;;15.99;100.00;100737.63;5073891;28;20196;-75
2021/08/23 00:45:18;;;;;;;3.93;3.10;;;;;;;15.98;100.00;100738.53;5093532;28;20671;-75
2021/08/23 00:48:00;;;;;;;3.80;3.30;;;;;;;15.93;100.00;100737.06;5092948;28;20241;-75
2021/08/23 00:50:33;;;;;;;5.13;3.30;;;;;;;15.93;100.00;100735.28;5087157;28;20201;-75
2021/08/23 00:53:13;;;;;;;4.03;3.20;;;;;;;15.93;100.00;100737.91;5087563;28;20606;-75
2021/08/23 00:56:09;;;;;;;3.43;2.80;;;;;;;15.86;100.00;100734.69;5101323;28;20550;-75
2021/08/23 00:58:42;;;;;;;3.90;2.80;;;;;;;15.86;100.00;100733.84;5088338;28;20646;-75
2021/08/23 01:01:22;;;;;;;3.73;3.00;;;;;;;15.84;100.00;100739.19;5085983;28;20575;-75
2021/08/23 01:04:03;;;;;;;4.47;2.80;;;;;;;15.75;100.00;100736.13;5087860;28;20570;-75
2021/08/23 01:06:41;;;;;;;3.47;2.60;;;;;;;15.70;100.00;100731.03;5080031;28;20587;-75
2021/08/23 01:09:21;;;;;;;5.00;2.60;;;;;;;15.64;100.00;100729.56;5080584;28;20619;-75
2021/08/23 01:12:03;;;;;;;3.37;2.33;;;;;;;15.58;100.00;100736.84;5090337;28;20737;-75
2021/08/23 01:14:41;;;;;;;3.53;2.30;;;;;;;15.55;100.00;100737.00;5068357;28;20653;-75
2021/08/23 01:17:39;;;;;;;3.43;2.80;;;;;;;15.53;100.00;100737.94;5087635;28;20286;-75
2021/08/23 01:20:17;;;;;;;2.80;2.30;;;;;;;15.51;100.00;100738.91;5087698;28;20190;-75
2021/08/23 01:22:58;;;;;;;4.27;2.67;;;;;;;15.49;100.00;100730.25;5090344;28;20196;-75
2021/08/23 01:25:36;;;;;;;3.20;2.40;;;;;;;15.46;100.00;100736.50;5091826;28;20197;-75
2021/08/23 01:28:45;;;;;;;3.57;2.37;;;;;;;15.42;100.00;100727.03;5069438;28;20540;-75
2021/08/23 01:31:24;;;;;;;2.93;2.47;;;;;;;15.43;100.00;100728.75;5095527;28;20211;-75
2021/08/23 01:34:14;;;;;;;3.43;2.50;;;;;;;15.41;100.00;100725.34;5085778;28;20197;-75
2021/08/23 01:37:04;;;;;;;3.40;2.47;;;;;;;15.44;100.00;100724.34;5065640;28;20228;-75
2021/08/23 01:39:45;;;;;;;5.27;2.33;;;;;;;15.42;100.00;100727.03;5077079;28;20286;-75
2021/08/23 01:42:23;;;;;;;3.90;2.60;;;;;;;15.44;100.00;100722.59;5087083;28;20278;-75
2021/08/23 01:45:04;;;;;;;3.67;2.50;;;;;;;15.42;100.00;100723.56;5091182;28;20563;-75
2021/08/23 01:47:48;;;;;;;3.80;2.43;;;;;;;15.38;100.00;100725.47;5085308;28;20219;-75
2021/08/23 01:50:26;;;;;;;3.63;2.67;;;;;;;15.37;100.00;100721.13;5085319;28;20204;-75
2021/08/23 01:53:03;;;;;;;2.70;2.10;;;;;;;15.39;100.00;100721.06;5091078;28;20190;-75
2021/08/23 01:55:51;;;;;;;3.40;2.50;;;;;;;15.39;100.00;100723.69;5086347;28;20631;-75
2021/08/23 01:58:25;;;;;;;4.03;2.47;;;;;;;15.35;100.00;100717.72;5076991;28;20252;-75
2021/08/23 02:00:58;;;;;;;3.90;2.40;;;;;;;15.33;100.00;100722.19;5095380;28;20198;-75
2021/08/23 02:03:37;;;;;;;4.30;2.50;;;;;;;15.28;100.00;100721.53;5087503;28;20205;-75
2021/08/23 02:06:18;;;;;;;3.23;2.50;;;;;;;15.27;100.00;100715.44;5089802;28;20528;-75
2021/08/23 02:08:56;;;;;;;5.33;2.70;;;;;;;15.28;100.00;100722.38;5087375;28;20197;-75
2021/08/23 02:11:41;;;;;;;3.33;2.10;;;;;;;15.29;100.00;100710.97;5094539;28;20606;-75
2021/08/23 02:14:14;;;;;;;4.03;2.27;;;;;;;15.25;100.00;100708.53;5073288;28;20552;-75
2021/08/23 02:16:50;;;;;;;4.47;2.60;;;;;;;15.25;100.00;100716.41;5068797;28;20236;-75
2021/08/23 02:19:31;;;;;;;3.73;2.60;;;;;;;15.19;100.00;100712.28;5085662;28;20539;-75
2021/08/23 02:22:17;;;;;;;3.50;2.27;;;;;;;15.18;100.00;100714.97;5090513;28;20574;-75
2021/08/23 02:28:42;;;;;;;4.70;2.67;;;;;;;15.24;100.00;100710.31;5096614;28;20195;-75
2021/08/23 02:31:10;;;;;;;3.80;2.30;;;;;;;15.22;100.00;100706.91;5091011;28;20612;-75
2021/08/23 02:33:45;;;;;;;4.67;2.60;;;;;;;15.21;100.00;100706.97;5088659;28;20565;-75
2021/08/23 02:36:29;;;;;;;3.27;2.47;;;;;;;15.22;100.00;100698.19;5090935;28;20197;-75
2021/08/23 02:39:16;;;;;;;5.50;2.40;;;;;;;15.19;100.00;100701.78;5098115;28;20245;-75
2021/08/23 02:41:53;;;;;;;4.07;2.43;;;;;;;15.18;100.00;100709.72;5087770;28;20626;-75
2021/08/23 02:44:26;;;;;;;4.07;2.40;;;;;;;15.16;100.00;100696.66;5095581;28;20256;-75
2021/08/23 02:47:04;;;;;;;3.57;2.60;;;;;;;15.19;100.00;100699.16;5089102;28;20563;-75
2021/08/23 02:49:45;;;;;;;4.23;2.90;;;;;;;15.17;100.00;100698.38;5093623;28;20553;-75
2021/08/23 02:52:15;;;;;;;3.90;2.70;;;;;;;15.17;100.00;100694.91;5097169;28;20561;-75
2021/08/23 02:54:55;;;;;;;3.23;2.87;;;;;;;15.17;100.00;100693.13;5096293;28;20589;-75
2021/08/23 02:57:28;;;;;;;3.20;2.53;;;;;;;15.16;100.00;100696.66;5090134;28;20224;-75
2021/08/23 03:00:14;;;;;;;2.57;2.17;;;;;;;15.19;100.00;100693.06;5091652;28;20288;-75
2021/08/23 03:02:56;;;;;;;3.03;2.50;;;;;;;15.17;100.00;100695.75;5086486;28;20725;-75
2021/08/23 03:05:42;;;;;;;3.10;2.57;;;;;;;15.15;100.00;100700.22;5091083;28;20601;-74
2021/08/23 03:11:20;;;;;;;3.23;2.50;;;;;;;15.15;100.00;100693.19;5096448;28;20555;-75
2021/08/23 03:13:58;;;;;;;2.90;2.27;;;;;;;15.16;100.00;100699.28;5086676;28;20190;-75
2021/08/23 03:16:43;;;;;;;3.17;2.67;;;;;;;15.16;100.00;100694.03;5088760;28;20225;-74
2021/08/23 03:19:22;;;;;;;3.33;2.80;;;;;;;15.19;100.00;100688.66;5067347;28;20227;-74
2021/08/23 03:21:58;;;;;;;3.23;2.77;;;;;;;15.17;100.00;100687.88;5072693;28;20205;-75
2021/08/23 03:24:31;;;;;;;4.03;3.07;;;;;;;15.14;100.00;100683.63;5094511;28;20272;-75
2021/08/23 03:27:08;;;;;;;4.73;3.17;;;;;;;15.14;100.00;100682.75;5090056;28;20243;-75
2021/08/23 03:29:50;;;;;;;4.83;3.40;;;;;;;15.12;100.00;100680.19;5087040;28;20209;-75
2021/08/23 03:32:27;;;;;;;3.30;2.80;;;;;;;15.14;100.00;100688.00;5083212;28;20239;-75
2021/08/23 03:35:09;;;;;;;4.50;3.07;;;;;;;15.17;100.00;100679.16;5091032;28;20201;-74
2021/08/23 03:37:53;;;;;;;3.83;3.13;;;;;;;15.19;100.00;100678.16;5085639;28;20224;-75
2021/08/23 03:40:38;;;;;;;4.10;3.27;;;;;;;15.20;100.00;100686.91;5084193;28;20284;-75
2021/08/23 03:43:19;;;;;;;5.20;3.47;;;;;;;15.19;100.00;100687.81;5094327;28;20228;-75
2021/08/23 03:45:55;;;;;;;4.40;3.20;;;;;;;15.15;100.00;100681.84;5088957;28;20313;-74
2021/08/23 03:48:31;;;;;;;4.13;3.17;;;;;;;15.18;100.00;100686.09;5074303;28;20279;-75
2021/08/23 03:51:14;;;;;;;4.30;3.17;;;;;;;15.20;100.00;100679.88;5088689;28;20569;-75
2021/08/23 03:54:01;;;;;;;4.23;3.10;;;;;;;15.22;100.00;100688.53;5087443;28;20198;-75
2021/08/23 03:59:50;;;;;;;4.57;3.10;;;;;;;15.19;100.00;100687.81;5090108;28;20216;-75
2021/08/23 04:02:30;;;;;;;3.73;2.93;;;;;;;15.20;100.00;100684.28;5089746;28;20230;-75
2021/08/23 04:05:02;;;;;;;4.93;3.43;;;;;;;15.18;100.00;100688.72;5087887;28;20198;-75
2021/08/23 04:07:48;;;;;;;4.57;3.40;;;;;;;15.17;100.00;100690.50;5086313;28;20220;-75
2021/08/23 04:10:26;;;;;;;6.07;3.60;;;;;;;15.18;100.00;100694.84;5090019;28;20243;-74
2021/08/23 04:13:18;;;;;;;4.77;3.33;;;;;;;15.14;100.00;100686.25;5074247;28;20217;-74
2021/08/23 04:16:00;;;;;;;4.23;3.23;;;;;;;15.15;100.00;100685.31;5086048;28;20236;-75
2021/08/23 04:18:39;;;;;;;5.90;3.50;;;;;;;15.15;100.00;100689.72;5095525;28;20237;-75
2021/08/23 04:21:17;;;;;;;5.00;3.40;;;;;;;15.17;100.00;100697.53;5087107;28;20451;-75
2021/08/23 04:23:56;;;;;;;4.17;3.30;;;;;;;15.16;100.00;100694.03;5087120;28;20203;-75
2021/08/23 04:26:29;;;;;;;6.77;3.80;;;;;;;15.17;100.00;100697.53;5087060;28;20316;-75
2021/08/23 04:29:07;;;;;;;5.77;3.73;;;;;;;15.17;100.00;100697.53;5088953;28;20295;-75
2021/08/23 04:31:52;;;;;;;7.07;3.60;;;;;;;15.20;100.00;100700.03;5088804;28;20387;-75
2021/08/23 04:34:32;;;;;;;5.63;3.70;;;;;;;15.19;100.00;100701.78;5059743;28;20211;-75
2021/08/23 04:37:06;;;;;;;4.43;3.20;;;;;;;15.19;100.00;100701.78;5089829;28;20237;-75
2021/08/23 04:39:43;;;;;;;5.57;3.90;;;;;;;15.17;100.00;100703.63;5087008;28;20225;-75
2021/08/23 04:42:13;;;;;;;4.70;3.50;;;;;;;15.20;100.00;100703.50;5082868;28;20588;-75
2021/08/23 04:44:54;;;;;;;4.37;3.40;;;;;;;15.21;100.00;100702.56;5089001;28;20206;-75
2021/08/23 04:50:50;;;;;;;6.07;4.03;;;;;;;15.23;100.00;100706.00;5093856;27;20630;-75
2021/08/23 04:53:16;;;;;;;5.77;4.17;;;;;;;15.19;100.00;100708.81;5070889;28;20203;-75
2021/08/23 04:55:43;;;;;;;4.37;3.57;;;;;;;15.22;100.00;100703.44;5072225;28;20255;-75
2021/08/23 04:58:09;;;;;;;4.70;3.67;;;;;;;15.21;100.00;100709.59;5066787;28;20230;-75
2021/08/23 05:00:35;;;;;;;4.70;3.30;;;;;;;15.23;100.00;100700.75;5069709;28;20197;-75
2021/08/23 05:03:01;;;;;;;4.00;3.13;;;;;;;15.25;100.00;100704.16;5076290;22;20190;-70
2021/08/23 05:05:28;;;;;;;4.33;3.37;;;;;;;15.28;100.00;100705.78;5057433;28;20209;-70
2021/08/23 05:07:55;;;;;;;4.37;3.50;;;;;;;15.29;100.00;100710.97;5059150;28;20215;-69
2021/08/23 05:10:22;;;;;;;4.03;3.00;;;;;;;15.28;100.00;100709.25;5057198;28;20867;-70
2021/08/23 05:12:49;;;;;;;6.47;3.57;;;;;;;15.30;100.00;100715.31;5061203;28;20200;-69
2021/08/23 05:15:15;;;;;;;8.30;4.40;;;;;;;15.34;100.00;100711.63;5056435;28;20207;-71
2021/08/23 05:17:41;;;;;;;7.83;5.10;;;;;;;15.37;100.00;100712.41;5058439;28;20207;-71
2021/08/23 05:20:09;;;;;;;4.97;3.80;;;;;;;15.38;100.00;100714.13;5056318;28;20225;-71
2021/08/23 05:22:37;;;;;;;6.30;3.80;;;;;;;15.37;100.00;100721.13;5060319;28;20210;-71
2021/08/23 05:25:06;;;;;;;5.97;4.20;;;;;;;15.41;100.00;100717.47;5062911;28;20218;-71
2021/08/23 05:27:33;;;;;;;4.73;3.70;;;;;;;15.47;100.00;100711.06;5055659;28;20466;-70
2021/08/23 05:30:01;;;;;;;4.27;2.93;;;;;;;15.46;100.00;100717.25;5054574;28;20217;-71
2021/08/23 05:32:28;;;;;;;3.77;2.90;;;;;;;15.51;100.00;100715.25;5056016;28;20213;-70
2021/08/23 05:34:54;;;;;;;4.77;2.73;;;;;;;15.53;100.00;100719.53;5056504;28;20222;-71
2021/08/23 05:37:20;;;;;;;3.37;2.97;;;;;;;15.52;100.00;100717.81;5052743;28;20248;-71
2021/08/23 05:39:47;;;;;;;2.80;2.50;;;;;;;15.58;100.00;100721.94;5050285;28;20260;-70
2021/08/23 05:42:14;;;;;;;3.87;2.90;;;;;;;15.60;100.00;100712.22;5054400;28;20202;-69
2021/08/23 05:44:41;;;;;;;4.03;3.00;;;;;;;15.64;100.00;100723.47;5057028;28;20226;-68
2021/08/23 05:47:08;;;;;;;4.20;3.00;;;;;;;15.66;100.00;100717.19;5056288;28;20199;-70
2021/08/23 05:49:35;;;;;;;4.17;3.20;;;;;;;15.68;100.00;100719.75;5060762;28;20716;-69
2021/08/23 05:52:02;;;;;;;4.00;3.20;;;;;;;15.72;100.00;100723.94;5054255;28;20191;-69
2021/08/23 05:54:30;;;;;;;5.43;3.93;;;;;;;15.79;100.00;100725.38;5053431;28;20304;-69
2021/08/23 05:56:57;;;;;;;4.60;3.33;;;;;;;15.79;100.00;100727.19;5057326;28;20203;-69
2021/08/23 05:59:25;;;;;;;5.17;3.73;;;;;;;15.82;100.00;100727.88;5051028;28;20322;-70
2021/08/23 06:01:53;;;;;;;4.73;4.23;;;;;;;15.82;100.00;100727.03;5044754;28;20203;-69
2021/08/23 06:04:20;;;;;;;4.50;4.03;;;;;;;15.87;100.00;100728.53;5034767;28;20238;-68
2021/08/23 06:06:47;;;;;;;6.47;4.70;;;;;;;15.89;100.00;100739.81;5043277;28;20210;-69
2021/08/23 06:09:13;;;;;;;6.20;4.70;;;;;;;15.90;100.00;100735.44;5040154;28;20711;-69
2021/08/23 06:11:40;;;;;;;5.27;4.50;;;;;;;15.89;100.00;100737.19;5043555;28;20683;-70
2021/08/23 06:14:06;;;;;;;5.03;4.20;;;;;;;15.91;100.00;100739.75;5033848;28;20222;-68
2021/08/23 06:16:34;;;;;;;6.10;4.53;;;;;;;15.96;100.00;100734.28;5037634;28;20211;-70
2021/08/23 06:19:00;;;;;;;5.83;4.50;;;;;;;15.92;100.00;100736.22;5052539;28;20199;-69
2021/08/23 06:21:27;;;;;;;5.93;4.27;;;;;;;15.93;100.00;100737.91;5042035;28;20279;-69
2021/08/23 06:23:53;;;;;;;5.17;4.07;;;;;;;15.93;100.00;100739.69;5044461;28;20234;-70
2021/08/23 06:26:20;;;;;;;5.23;4.43;;;;;;;15.96;100.00;100736.91;5037316;28;20207;-70
2021/08/23 06:28:46;;;;;;;5.37;4.20;;;;;;;15.97;100.00;100742.13;5045957;28;20504;-69
2021/08/23 06:31:13;;;;;;;5.27;4.10;;;;;;;16.00;100.00;100736.69;5039024;28;20620;-68
2021/08/23 06:33:40;;;;;;;4.83;3.97;;;;;;;16.03;100.00;100740.97;5043375;28;20771;-69
2021/08/23 06:36:07;;;;;;;6.07;4.40;;;;;;;16.06;100.00;100744.31;5042163;28;20195;-70
2021/08/23 06:38:33;;;;;;;4.30;3.70;;;;;;;16.04;100.00;100743.53;5043050;28;20253;-67
2021/08/23 06:40:59;;;;;;;4.40;3.53;;;;;;;16.09;100.00;100743.28;5043194;28;20206;-68
2021/08/23 06:43:26;;;;;;;4.30;3.90;;;;;;;16.14;100.00;100743.09;5039411;28;20226;-70
2021/08/23 06:45:53;;;;;;;4.53;3.50;;;;;;;16.11;100.00;100744.06;5048457;28;20618;-70
2021/08/23 06:48:19;;;;;;;5.63;4.17;;;;;;;16.12;100.00;100747.56;5038222;28;21855;-70
2021/08/23 06:50:47;;;;;;;5.30;3.90;;;;;;;16.07;100.00;100751.25;5042809;28;20714;-68
2021/08/23 06:53:13;;;;;;;4.10;3.67;;;;;;;16.12;100.00;100747.56;5035225;28;20229;-71
2021/08/23 06:55:40;;;;;;;4.00;3.60;;;;;;;16.12;100.00;100744.94;5040817;28;20215;-69
2021/08/23 06:58:07;;;;;;;4.27;3.37;;;;;;;16.12;100.00;100752.81;5040451;28;20758;-69
2021/08/23 07:00:33;;;;;;;4.43;3.73;;;;;;;16.11;100.00;100749.31;5042512;28;20536;-70
2021/08/23 07:03:02;;;;;;;6.13;4.10;;;;;;;16.17;100.00;100750.84;5039712;28;20524;-70
2021/08/23 07:05:28;;;;;;;4.87;4.07;;;;;;;16.25;100.00;100753.94;5042324;28;20196;-69
2021/08/23 07:07:56;;;;;;;5.83;3.87;;;;;;;16.20;100.00;100750.66;5042782;28;20302;-69
2021/08/23 07:10:23;;;;;;;3.57;3.03;;;;;;;16.16;100.00;100751.75;5037870;28;20215;-68
2021/08/23 07:12:49;;;;;;;2.80;2.60;;;;;;;16.12;100.00;100753.66;5041095;28;20207;-70
2021/08/23 07:15:15;;;;;;;3.00;2.40;;;;;;;16.08;100.00;100760.84;5036940;28;20207;-70
2021/08/23 07:17:42;;;;;;;2.30;2.10;;;;;;;16.06;100.00;100765.34;5040167;28;20222;-70
2021/08/23 07:20:09;;;;;;;3.43;2.27;;;;;;;15.99;100.00;100768.31;5038435;28;20291;-70
2021/08/23 07:22:35;;;;;;;1.70;1.60;;;;;;;15.77;100.00;100777.19;5037967;28;20207;-68
2021/08/23 07:25:03;;;;;;;1.60;1.30;;;;;;;15.68;100.00;100775.78;5041300;28;20203;-69
2021/08/23 07:27:32;;;;;;;1.40;1.30;;;;;;;15.63;100.00;100788.28;5036743;28;20215;-69
2021/08/23 07:29:58;;;;;;;1.03;1.00;;;;;;;15.59;100.00;100781.47;5042749;28;21526;-69
2021/08/23 07:32:24;;;;;;;1.30;1.20;;;;;;;15.53;100.00;100782.59;5038373;28;20231;-69
2021/08/23 07:34:51;;;;;;;1.33;1.23;;;;;;;15.45;100.00;100789.97;5041280;28;20295;-70
2021/08/23 07:37:17;;;;;;;1.63;1.10;;;;;;;15.47;100.00;100787.28;5036148;28;20213;-70
2021/08/23 07:39:45;;;;;;;2.60;1.20;;;;;;;15.50;100.00;100787.13;5042510;28;20199;-68
2021/08/23 07:42:13;;;;;;;1.97;1.77;;;;;;;15.50;100.00;100797.66;5036626;28;20208;-70
2021/08/23 07:44:40;;;;;;;3.33;1.40;;;;;;;15.38;100.00;100798.19;5041356;28;20237;-68
2021/08/23 07:47:07;;;;;;;1.70;1.60;;;;;;;15.30;100.00;100809.88;5040997;28;20208;-69
2021/08/23 07:49:34;;;;;;;1.60;1.50;;;;;;;15.29;100.00;100802.91;5041499;28;20214;-69
2021/08/23 07:52:01;;;;;;;1.50;1.40;;;;;;;15.25;100.00;100810.97;5041561;28;20207;-70
2021/08/23 07:54:27;;;;;;;1.30;1.20;;;;;;;15.15;100.00;100813.16;5041992;28;20716;-69
2021/08/23 07:56:53;;;;;;;1.53;1.43;;;;;;;15.15;100.00;100806.13;5040184;28;20195;-70
2021/08/23 07:59:21;;;;;;;1.60;1.50;;;;;;;15.17;100.00;100810.47;5036751;28;20573;-70
2021/08/23 08:01:47;;;;;;;1.50;1.40;;;;;;;15.14;100.00;100811.44;5042346;28;20207;-70
2021/08/23 08:04:14;;;;;;;1.60;1.50;;;;;;;15.18;100.00;100820.03;5037586;28;20233;-70
2021/08/23 08:06:43;;;;;;;1.50;1.40;;;;;;;15.14;100.00;100825.44;5042670;28;20214;-68
2021/08/23 08:09:10;;;;;;;1.40;1.30;;;;;;;15.13;100.00;100822.88;5039885;28;20713;-70
2021/08/23 08:11:36;;;;;;;1.57;1.47;;;;;;;15.13;100.00;100828.97;5039906;28;20597;-69
2021/08/23 08:14:03;;;;;;;1.43;1.33;;;;;;;15.09;100.00;100822.16;5039191;28;20223;-70
2021/08/23 08:16:31;;;;;;;1.43;1.33;;;;;;;15.10;100.00;100820.38;5040684;28;20209;-69
2021/08/23 08:18:57;;;;;;;1.40;1.30;;;;;;;15.07;100.00;100831.00;5040929;28;20286;-69
2021/08/23 08:21:24;;;;;;;1.50;1.40;;;;;;;15.02;100.00;100835.56;5035642;28;20208;-70
2021/08/23 08:23:53;;;;;;;1.67;1.30;;;;;;;15.01;100.00;100831.25;5041271;28;20718;-70
2021/08/23 08:26:20;;;;;;;1.33;1.23;;;;;;;15.03;100.00;100832.03;5040105;28;20326;-70
2021/08/23 08:28:46;;;;;;;1.07;1.07;;;;;;;15.01;100.00;100831.25;5041610;28;20405;-70
2021/08/23 08:31:13;;;;;;;1.40;1.30;;;;;;;14.97;100.00;100835.78;5038456;28;20219;-69
2021/08/23 08:33:40;;;;;;;1.40;1.30;;;;;;;14.99;100.00;100835.72;5038771;28;20227;-68
2021/08/23 08:36:07;;;;;;;1.33;1.23;;;;;;;14.98;100.00;100840.09;5047648;28;20208;-70
2021/08/23 08:38:33;;;;;;;1.00;1.00;;;;;;;14.97;100.00;100846.28;5036365;28;20312;-68
2021/08/23 08:41:01;;;;;;;1.20;1.10;;;;;;;14.96;100.00;100840.16;5041264;28;20206;-69
2021/08/23 08:43:28;;;;;;;1.27;1.20;;;;;;;14.99;100.00;100851.47;5037093;28;20226;-70
2021/08/23 08:45:54;;;;;;;1.30;1.20;;;;;;;14.92;100.00;100853.50;5042644;28;20572;-69
2021/08/23 08:48:21;;;;;;;1.13;1.03;;;;;;;14.94;100.00;100856.91;5038346;28;20211;-70
2021/08/23 08:50:52;;;;;;;2.27;1.17;;;;;;;14.94;100.00;100856.91;5041028;28;20227;-69
2021/08/23 08:53:19;;;;;;;1.07;0.90;;;;;;;14.90;100.00;100863.22;5039311;28;20581;-69
2021/08/23 08:55:45;;;;;;;1.60;1.20;;;;;;;14.87;100.00;100858.06;5041812;28;20292;-69
2021/08/23 08:58:11;;;;;;;0.90;0.90;;;;;;;14.80;100.00;100860.09;5041425;28;20663;-69
2021/08/23 09:00:40;;;;;;;1.10;1.00;;;;;;;14.80;100.00;100864.50;5040389;28;20795;-69
2021/08/23 09:03:08;;;;;;;0.87;0.87;;;;;;;14.72;100.00;100873.53;5040731;28;20223;-69
2021/08/23 09:05:38;;;;;;;1.57;1.13;;;;;;;14.73;100.00;100882.25;5039478;28;20662;-69
2021/08/23 09:08:07;;;;;;;1.00;1.00;;;;;;;14.65;100.00;100873.81;5041463;28;20253;-68
2021/08/23 09:10:39;;;;;;;0.90;0.90;;;;;;;14.63;100.00;100886.97;5036637;28;20219;-68
2021/08/23 09:13:06;;;;;;;1.23;1.13;;;;;;;14.65;100.00;100885.19;5042501;28;20524;-69
2021/08/23 09:15:33;;;;;;;1.60;1.50;;;;;;;14.68;100.00;100889.44;5035941;28;20207;-68
2021/08/23 09:18:03;;;;;;;1.53;1.43;;;;;;;14.65;100.00;100889.56;5036370;28;20207;-69
2021/08/23 09:20:29;;;;;;;1.47;1.37;;;;;;;14.62;100.00;100890.53;5040825;28;20208;-69
2021/08/23 09:23:08;;;;;;;1.83;1.63;;;;;;;14.71;100.00;100886.69;5039562;28;20230;-68
2021/08/23 09:26:07;;;;;;;2.00;1.80;;;;;;;14.63;100.00;100892.22;5037212;28;20202;-69
2021/08/23 09:28:33;;;;;;;2.03;1.90;;;;;;;14.64;100.00;100895.72;5037067;28;20207;-69
2021/08/23 09:31:00;;;;;;;2.87;1.70;;;;;;;14.62;100.00;100895.78;5040872;28;20215;-69
2021/08/23 09:33:26;;;;;;;2.00;1.80;;;;;;;14.59;100.00;100898.53;5036641;28;20815;-69
2021/08/23 09:35:53;;;;;;;1.87;1.73;;;;;;;14.57;100.00;100901.16;5037806;28;20578;-68
2021/08/23 09:38:21;;;;;;;2.07;1.87;;;;;;;14.59;100.00;100895.91;5043789;28;20207;-68
2021/08/23 09:40:50;;;;;;;3.07;1.80;;;;;;;14.60;100.00;100904.63;5036897;28;20196;-68
2021/08/23 09:43:16;;;;;;;2.17;1.90;;;;;;;14.55;100.00;100902.16;5046707;28;20226;-69
2021/08/23 09:45:47;;;;;;;2.10;1.90;;;;;;;14.51;100.00;100896.16;5041637;28;20210;-70
2021/08/23 09:48:14;;;;;;;2.20;1.97;;;;;;;14.50;100.00;100904.94;5048742;28;20543;-69
2021/08/23 09:50:42;;;;;;;2.20;1.90;;;;;;;14.49;100.00;100907.63;5037779;28;20219;-69
2021/08/23 09:53:11;;;;;;;2.30;2.10;;;;;;;14.50;100.00;100904.09;5035681;28;20325;-69
2021/08/23 09:55:40;;;;;;;2.40;1.90;;;;;;;14.48;100.00;100909.41;5042863;28;20234;-69
2021/08/23 09:58:08;;;;;;;1.90;1.80;;;;;;;14.54;100.00;100921.41;5050799;28;20473;-69
2021/08/23 10:00:34;;;;;;;1.90;1.80;;;;;;;14.50;100.00;100917.22;5035744;28;20549;-69
2021/08/23 10:03:02;;;;;;;2.93;1.93;;;;;;;14.48;100.00;100919.03;5040024;28;20226;-69
2021/08/23 10:05:30;;;;;;;2.50;2.00;;;;;;;14.51;100.00;100918.91;5043509;28;20203;-69
2021/08/23 10:07:57;;;;;;;1.60;1.50;;;;;;;14.49;100.00;100929.47;5039224;28;20208;-68
2021/08/23 10:10:24;;;;;;;1.70;1.60;;;;;;;14.40;100.00;100924.56;5042156;28;20226;-69
2021/08/23 10:12:53;;;;;;;1.63;1.50;;;;;;;14.44;100.00;100934.03;5038452;28;20237;-69
2021/08/23 10:15:19;;;;;;;1.83;1.70;;;;;;;14.47;100.00;100933.06;5049969;28;20205;-69
2021/08/23 10:17:46;;;;;;;2.00;1.80;;;;;;;14.44;100.00;100934.03;5041247;28;20214;-69
2021/08/23 10:20:14;;;;;;;1.47;1.37;;;;;;;14.41;100.00;100942.03;5041638;28;20212;-69
2021/08/23 10:22:42;;;;;;;1.50;1.40;;;;;;;14.36;100.00;100942.19;5041677;28;20207;-69
2021/08/23 10:25:10;;;;;;;1.90;1.70;;;;;;;14.48;100.00;100948.75;5038317;28;20210;-69
2021/08/23 10:27:39;;;;;;;1.40;1.30;;;;;;;14.44;100.00;100941.03;5045247;28;20205;-67
2021/08/23 10:30:09;;;;;;;2.00;1.80;;;;;;;14.46;100.00;100947.06;5038253;28;20203;-67
2021/08/23 10:32:37;;;;;;;1.40;1.30;;;;;;;14.43;100.00;100953.31;5044122;28;20486;-69
2021/08/23 10:35:18;;;;;;;1.47;1.30;;;;;;;14.45;100.00;100948.00;5039837;28;20585;-68
2021/08/23 10:37:45;;;;;;;2.33;1.20;;;;;;;14.44;100.00;100952.41;5045256;28;20208;-69
2021/08/23 10:40:13;;;;;;;1.27;1.10;;;;;;;14.46;100.00;100952.31;5038477;28;20576;-69
2021/08/23 10:42:42;;;;;;;1.20;1.10;;;;;;;14.41;100.00;100963.00;5041075;28;20214;-69
2021/08/23 10:45:12;;;;;;;2.53;1.20;;;;;;;14.36;100.00;100963.16;5046544;28;20199;-68
2021/08/23 10:47:39;;;;;;;1.20;1.10;;;;;;;14.30;100.00;100963.41;5037405;28;20204;-69
2021/08/23 10:50:07;;;;;;;1.30;1.20;;;;;;;14.30;100.00;100965.16;5049704;28;20198;-69
2021/08/23 10:52:36;;;;;;;1.30;1.20;;;;;;;14.26;100.00;100971.41;5039080;28;20523;-69
2021/08/23 10:55:07;;;;;;;4.40;1.33;;;;;;;14.25;100.00;100964.44;5043297;28;20314;-69
2021/08/23 10:57:34;;;;;;;3.50;1.37;;;;;;;14.27;100.00;100967.91;5042425;28;20434;-69
2021/08/23 11:00:09;;;;;;;1.40;1.30;;;;;;;14.30;100.00;100967.78;5044739;28;20207;-69
2021/08/23 11:02:38;;;;;;;2.60;1.40;;;;;;;14.29;100.00;100971.31;5041000;28;20198;-69
2021/08/23 11:05:09;;;;;;;2.00;1.63;;;;;;;14.25;100.00;100965.34;5039244;28;20203;-68
2021/08/23 11:07:37;;;;;;;10.60;1.83;;;;;;;14.25;100.00;100974.94;5046977;28;20234;-69
2021/08/23 11:10:07;;;;;;;2.07;1.87;;;;;;;14.25;100.00;100986.31;5037864;28;20215;-69
2021/08/23 11:12:44;;;;;;;2.40;2.07;;;;;;;14.23;100.00;100982.00;5044673;28;20230;-69
2021/08/23 11:15:20;;;;;;;2.10;1.90;;;;;;;14.22;100.00;100978.53;5039064;28;20230;-69
2021/08/23 11:17:50;;;;;;;3.17;1.97;;;;;;;14.25;100.00;100977.56;5039848;28;20199;-69
2021/08/23 11:20:21;;;;;;;2.43;2.23;;;;;;;14.20;100.00;100981.22;5044492;28;20684;-68
2021/08/23 11:22:56;;;;;;;3.13;2.50;;;;;;;14.16;100.00;100979.63;5038051;28;20200;-69
2021/08/23 11:25:27;;;;;;;2.83;2.53;;;;;;;14.22;100.00;100983.78;5043894;28;20201;-69
2021/08/23 11:27:54;;;;;;;3.07;2.77;;;;;;;14.17;100.00;100983.94;5038853;28;20203;-69
2021/08/23 11:30:27;;;;;;;4.73;3.40;;;;;;;14.10;100.00;100995.56;5043876;28;20298;-68
2021/08/23 11:32:55;;;;;;;4.00;3.60;;;;;;;14.13;100.00;100994.63;5038087;28;20203;-68
2021/08/23 11:35:22;;;;;;;4.00;3.70;;;;;;;14.14;100.00;100991.94;5041360;28;20576;-69
2021/08/23 11:37:55;;;;;;;4.50;3.70;;;;;;;14.13;100.00;101002.47;5041919;28;20558;-68
2021/08/23 11:40:22;;;;;;;4.40;4.00;;;;;;;14.05;100.00;101001.88;5036021;28;20315;-69
2021/08/23 11:42:52;;;;;;;4.73;4.23;;;;;;;13.99;100.00;101000.34;5044765;28;20203;-69
2021/08/23 11:45:20;;;;;;;4.30;3.90;;;;;;;13.93;100.00;101004.03;5034354;28;20232;-68
2021/08/23 11:47:50;;;;;;;4.10;3.70;;;;;;;13.89;100.00;101010.25;5046296;28;20289;-70
2021/08/23 11:50:19;;;;;;;4.47;3.93;;;;;;;13.89;100.00;101005.00;5038216;28;20270;-68
2021/08/23 11:52:46;;;;;;;3.93;3.53;;;;;;;13.85;100.00;101006.03;5041470;28;20724;-68
2021/08/23 11:55:23;;;;;;;3.73;3.33;;;;;;;13.83;100.00;101019.19;5038968;28;20194;-69